Aérodrome :
LOGIN :

S'inscrire | Disclaimer

   EN    FR    IT 

 










Légende :    VFR   VFR Marginal   IFR   IFR Intensif   IFR Très Intensif
Visi : 
Plafond : 
>= 8 km
>= 3000ft
5 à 8 km
1000 à 3000 ft
1500m à 5 km
500 à 1000 ft
800 à 1500m
200 à 500 ft
< 800m
< 200 ft
Symboles :   Orages  Brouillard  Fortes neiges  Fortes précipitations  Vent > 20 kt
SIGMETs :   Divers  Orages  Givrage  Turbulence  Onde Orograph.  Cendres Volcan.






- Altitude de l'aérodrome : 436 ft
- Code IATA : BTS


LZIB - Bratislava

DERNIER METAR :
  • 041030Z 12012KT 7000 SCT007 OVC009 03/01 Q1004 R13/290295 TEMPO BKN010

METARs EXPIRÉS :
  • 041000Z 12012KT 7000 OVC009 02/01 Q1004 R13/290295 TEMPO BKN010
  • 040930Z 12012KT 7000 SCT008 OVC009 02/01 Q1004 R13/290295 TEMPO BKN010
  • 040900Z 12011KT 7000 SCT007 OVC009 02/01 Q1004 R13/290295 TEMPO BKN010
  • 040830Z 10004KT 030V130 6000 SCT007 OVC008 02/01 Q1004 R13/290295 TEMPO BKN010
  • 040800Z 12009KT 4800 BR SCT007 OVC008 02/01 Q1004 R13/290295 NOSIG

TAF TAF LZIB
Valide du 04 à 06h jusqu'au 05 à 06h UTC


040500Z 0406/0506 12010KT 6000 SCT005 OVC020
TEMPO 0406/0410 2500 -RADZ BR BKN004 OVC012
TEMPO 0408/0416 16016KT
BECMG 0413/0415 9999 SCT020 SCT060
TEMPO 0422/0506 10005KT BKN009



MET'MAP, la Météo Aéronautique d'un coup d'oeil ! - Copyright ORBIFLY Décembre 2007 - Disclaimer

ORBIFLY MET'MAP TEAM :

Programmation & Développement : Alexandra Zaïnal
Sur une idée originale de : Baudouin d'Aumeries
Assistance à la programmation : Marc-Olivier Méhu
Soutien technique & logistique : Manuel Goepfert

Contact : metmap@orbifly.com




SOURCES & CREDITS :

   NOAA